Amy C — MKWC7 — position and weather

sailwx.info

Track history (hours):
 
Tides and Currents Weather Stations Pressure Air Temp Water Temp Dewpoint Dewpoint Depression Visibility Wind Speed Wind Dir Waves Ship Positions

Amy C

Last reported at 2017-Jan-17 09:33 UTC. Time now 2017-Jan-18 01:47 UTC.
Position N 36°00' W 005°18'.

Length 136 m; draft 9 m.

Type: Ship. MMSI: 235010170.

Date/timePositionNaut miles runAvg speedWind from/ knotsBaromVisibWave heightAir tempDewpointWater temp
2017-Jan-17 09:33N 36°00' W 005°18'  
2017-Jan-14 09:18N 36°17' W 023°50'810.3
2017-Jan-14 08:33N 36°17' W 023°59'1010.3
2017-Jan-14 07:33N 36°17' W 024°12'1010.5
2017-Jan-14 06:33N 36°17' W 024°25'1110.7
2017-Jan-14 05:33N 36°18' W 024°39'1110.8
2017-Jan-14 04:34N 36°18' W 024°52'1111.4
2017-Jan-14 03:33N 36°18' W 025°06'4912.1
2017-Jan-13 23:33N 36°19' W 026°06'  
Track history (hours):
 
Tides and Currents Weather Stations Pressure Air Temp Water Temp Dewpoint Dewpoint Depression Visibility Wind Speed Wind Dir Waves Ship Positions

Amy C

Last reported at 2017-Jan-17 09:33 UTC. Time now 2017-Jan-18 01:47 UTC.
Position N 36°00' W 005°18'.

Length 136 m; draft 9 m.

Type: Ship. MMSI: 235010170.

Date/timePositionNaut miles runAvg speedWind from/ knotsBaromVisibWave heightAir tempDewpointWater temp
2017-Jan-17 09:33N 36°00' W 005°18'  
2017-Jan-14 09:18N 36°17' W 023°50'810.3
2017-Jan-14 08:33N 36°17' W 023°59'1010.3
2017-Jan-14 07:33N 36°17' W 024°12'1010.5
2017-Jan-14 06:33N 36°17' W 024°25'1110.7
2017-Jan-14 05:33N 36°18' W 024°39'1110.8
2017-Jan-14 04:34N 36°18' W 024°52'1111.4
2017-Jan-14 03:33N 36°18' W 025°06'4912.1
2017-Jan-13 23:33N 36°19' W 026°06'  

Dump ship's entire track history